Time;durP1;ratioP1;P1;durP2;ratioP2;P2;SDS_P1;SDS_P2;PMS_P1;PMS_P2;Temp;Humidity;BMP_temperature;BMP_pressure;BME280_temperature;BME280_humidity;BME280_pressure;Samples;Min_cycle;Max_cycle;Signal;HPM_P1;HPM_P2
2023/11/12 00:00:45;;;;;;;6.53;5.68;;;;;;;5.92;84.18;97784.44;5092056;28;20019;-81
2023/11/12 00:03:11;;;;;;;7.90;6.65;;;;;;;6.17;83.94;97783.97;5083247;28;20308;-81
2023/11/12 00:05:36;;;;;;;9.50;6.75;;;;;;;5.77;83.95;97780.75;5089310;28;20024;-82
2023/11/12 00:08:02;;;;;;;9.43;5.57;;;;;;;6.29;83.26;97789.16;5072789;28;20024;-81
2023/11/12 00:10:28;;;;;;;9.27;5.68;;;;;;;5.91;83.47;97782.84;5092418;28;20515;-81
2023/11/12 00:12:53;;;;;;;10.52;6.93;;;;;;;6.17;83.27;97769.91;5082714;28;20052;-81
2023/11/12 00:15:18;;;;;;;9.10;6.38;;;;;;;6.15;83.74;97788.72;5076891;28;20111;-81
2023/11/12 00:17:44;;;;;;;8.63;6.50;;;;;;;6.21;83.56;97790.38;5091944;28;20036;-82
2023/11/12 00:20:12;;;;;;;7.55;6.25;;;;;;;6.07;83.71;97783.84;5084887;28;20032;-82
2023/11/12 00:22:43;;;;;;;7.68;6.88;;;;;;;6.10;83.42;97780.69;5081134;28;20525;-82
2023/11/12 00:25:12;;;;;;;10.05;6.78;;;;;;;6.16;83.09;97795.59;5083198;28;20062;-81
2023/11/12 00:27:40;;;;;;;7.30;6.20;;;;;;;6.17;83.05;97793.75;5085309;28;20052;-83
2023/11/12 00:30:07;;;;;;;10.45;6.32;;;;;;;6.05;83.23;97789.38;5089212;28;20032;-81
2023/11/12 00:32:32;;;;;;;8.00;7.18;;;;;;;5.92;83.28;97771.19;5080272;28;20023;-82
2023/11/12 00:34:58;;;;;;;7.82;6.88;;;;;;;6.16;82.39;97797.47;5072804;28;21382;-82
2023/11/12 00:37:24;;;;;;;8.70;6.00;;;;;;;6.13;82.87;97787.34;5084596;28;20035;-82
2023/11/12 00:39:49;;;;;;;8.70;5.88;;;;;;;6.09;82.84;97776.47;5077889;28;20305;-82
2023/11/12 00:42:15;;;;;;;8.25;6.45;;;;;;;6.16;81.99;97781.59;5054179;28;20047;-81
2023/11/12 00:44:40;;;;;;;8.07;5.80;;;;;;;6.13;82.43;97785.53;5090810;28;20095;-81
2023/11/12 00:47:06;;;;;;;6.90;6.10;;;;;;;6.12;82.54;97788.38;5083276;28;20050;-82
2023/11/12 00:49:32;;;;;;;13.95;6.75;;;;;;;6.00;82.06;97776.09;5088940;28;20027;-82
2023/11/12 00:51:57;;;;;;;8.93;6.60;;;;;;;5.85;82.79;97775.09;5080085;28;20391;-81
2023/11/12 00:54:22;;;;;;;9.65;7.38;;;;;;;6.10;82.80;97785.19;5087574;28;20476;-81
2023/11/12 00:56:48;;;;;;;8.02;7.20;;;;;;;5.97;82.86;97787.16;5088028;28;20070;-82
2023/11/12 00:59:13;;;;;;;7.78;6.55;;;;;;;5.97;82.47;97784.50;5064245;28;20024;-81
2023/11/12 01:01:39;;;;;;;10.45;7.05;;;;;;;6.00;82.76;97789.34;5079884;28;20031;-82
2023/11/12 01:04:05;;;;;;;8.85;6.50;;;;;;;6.00;82.49;97791.19;5071231;28;20518;-81
2023/11/12 01:06:30;;;;;;;7.78;7.00;;;;;;;5.85;83.08;97773.22;5085020;28;20032;-81
2023/11/12 01:08:55;;;;;;;8.73;6.30;;;;;;;5.89;82.39;97777.00;5091009;28;20027;-82
2023/11/12 01:11:21;;;;;;;14.23;6.95;;;;;;;6.02;82.29;97774.00;5087452;28;20036;-82
2023/11/12 01:13:46;;;;;;;12.85;7.05;;;;;;;6.01;82.73;97777.69;5094008;28;20559;-81
2023/11/12 01:16:11;;;;;;;8.73;6.60;;;;;;;5.93;81.88;97780.75;5090743;28;20057;-82
2023/11/12 01:18:40;;;;;;;15.43;7.22;;;;;;;5.77;82.51;97772.81;5064769;28;20032;-82
2023/11/12 01:21:06;;;;;;;7.30;6.40;;;;;;;5.77;82.78;97781.56;5055829;28;20031;-82
2023/11/12 01:23:31;;;;;;;10.43;6.47;;;;;;;5.86;83.28;97777.47;5072850;28;20044;-82
2023/11/12 01:25:57;;;;;;;8.20;6.82;;;;;;;5.89;82.69;97777.00;5091016;28;20020;-82
2023/11/12 01:28:23;;;;;;;9.13;7.28;;;;;;;5.71;82.95;97768.50;5088654;28;20040;-81
2023/11/12 01:30:49;;;;;;;9.73;7.35;;;;;;;5.74;82.80;97776.75;5094784;28;20479;-82
2023/11/12 01:33:15;;;;;;;10.80;7.55;;;;;;;5.72;82.52;97770.09;5092639;28;20114;-81
2023/11/12 01:35:40;;;;;;;11.25;7.03;;;;;;;5.52;83.48;97785.69;5072560;28;20543;-82
2023/11/12 01:38:05;;;;;;;12.85;8.10;;;;;;;5.23;84.31;97758.50;5084746;28;20028;-80
2023/11/12 01:40:37;;;;;;;15.38;8.95;;;;;;;5.37;84.44;97777.53;5066664;28;20060;-80
2023/11/12 01:43:02;;;;;;;8.05;7.25;;;;;;;5.22;84.17;97763.00;5082088;28;20054;-80
2023/11/12 01:45:27;;;;;;;12.07;7.60;;;;;;;5.19;84.96;97755.56;5079306;28;20546;-80
2023/11/12 01:47:53;;;;;;;8.43;7.03;;;;;;;5.45;83.87;97772.63;5075848;28;20024;-80
2023/11/12 01:50:19;;;;;;;14.02;7.22;;;;;;;5.68;82.72;97769.00;5082763;28;20073;-80
2023/11/12 01:52:46;;;;;;;13.57;9.75;;;;;;;5.54;83.15;97749.19;5080444;28;20032;-80
2023/11/12 01:55:13;;;;;;;11.35;7.25;;;;;;;5.58;82.65;97758.25;5067523;28;20054;-80
2023/11/12 01:57:39;;;;;;;8.70;7.25;;;;;;;5.69;82.56;97758.16;5080654;28;20035;-80
2023/11/12 02:00:10;;;;;;;9.43;6.78;;;;;;;5.76;82.42;97745.56;5079201;28;20463;-81
2023/11/12 02:02:37;;;;;;;9.63;6.93;;;;;;;5.80;82.31;97764.38;5067492;28;20047;-80
2023/11/12 02:05:07;;;;;;;10.43;6.80;;;;;;;5.74;82.41;97746.84;5069363;28;20077;-80
2023/11/12 02:07:34;;;;;;;10.68;7.20;;;;;;;5.76;82.41;97763.28;5082704;28;20029;-80
2023/11/12 02:10:09;;;;;;;8.43;6.70;;;;;;;5.79;82.13;97750.34;5081245;28;20349;-80
2023/11/12 02:12:37;;;;;;;8.88;6.68;;;;;;;5.75;82.31;97753.72;5077698;28;20534;-80
2023/11/12 02:15:03;;;;;;;11.20;8.15;;;;;;;5.82;81.74;97759.66;5066750;28;20446;-80
2023/11/12 02:17:31;;;;;;;9.18;6.72;;;;;;;5.84;82.26;97757.59;5080904;28;20158;-80
2023/11/12 02:20:06;;;;;;;11.10;7.10;;;;;;;5.70;82.58;97749.16;5082426;28;20558;-80
2023/11/12 02:22:33;;;;;;;12.60;7.30;;;;;;;5.68;82.95;97748.59;5085716;28;20031;-80
2023/11/12 02:24:59;;;;;;;10.52;7.88;;;;;;;5.73;82.26;97761.91;5085089;28;20276;-80
2023/11/12 02:27:25;;;;;;;14.55;7.75;;;;;;;5.59;82.31;97759.88;5083908;28;20036;-80
2023/11/12 02:29:50;;;;;;;16.20;7.95;;;;;;;5.58;83.70;97751.13;5083336;28;20468;-80
2023/11/12 02:32:18;;;;;;;12.98;8.27;;;;;;;5.55;82.87;97750.81;5084009;28;20522;-80
2023/11/12 02:34:43;;;;;;;12.95;8.63;;;;;;;5.46;84.35;97768.91;5051438;28;20029;-81
2023/11/12 02:37:09;;;;;;;9.48;8.45;;;;;;;5.44;83.85;97755.13;5082601;28;20043;-81
2023/11/12 02:39:34;;;;;;;13.98;8.77;;;;;;;5.56;83.29;97758.50;5069122;28;20043;-80
2023/11/12 02:42:00;;;;;;;15.70;8.65;;;;;;;5.52;83.03;97752.09;5078388;28;20059;-81
2023/11/12 02:44:25;;;;;;;10.57;8.52;;;;;;;5.62;82.82;97760.16;5083944;28;20034;-81
2023/11/12 02:46:50;;;;;;;17.13;10.18;;;;;;;5.59;83.59;97760.63;5068369;28;20077;-80
2023/11/12 02:49:32;;;;;;;12.98;7.97;;;;;;;5.68;83.02;97759.19;5050038;28;20066;-80
2023/11/12 02:51:57;;;;;;;13.43;9.35;;;;;;;5.63;82.74;97759.13;5084644;28;20229;-81
2023/11/12 02:54:22;;;;;;;9.05;7.55;;;;;;;5.58;83.62;97756.41;5083674;28;20036;-81
2023/11/12 02:56:48;;;;;;;14.52;8.93;;;;;;;5.59;83.87;97765.16;5083341;28;20036;-81
2023/11/12 02:59:14;;;;;;;10.25;9.15;;;;;;;5.34;83.88;97760.28;5079656;28;20511;-81
2023/11/12 03:01:40;;;;;;;10.77;8.88;;;;;;;5.27;84.06;97759.63;5075849;28;20036;-81
2023/11/12 03:04:06;;;;;;;10.60;8.35;;;;;;;5.42;84.09;97757.22;5076695;28;20074;-81
2023/11/12 03:06:31;;;;;;;10.60;8.75;;;;;;;5.54;83.86;97763.22;5056274;28;20040;-80
2023/11/12 03:08:57;;;;;;;13.20;8.75;;;;;;;5.62;83.24;97762.81;5079089;28;20039;-80
2023/11/12 03:11:25;;;;;;;10.80;8.55;;;;;;;5.70;83.12;97764.25;5061828;28;20152;-80
2023/11/12 03:13:51;;;;;;;12.70;8.50;;;;;;;5.57;83.11;97760.09;5060790;28;20551;-80
2023/11/12 03:16:17;;;;;;;13.32;9.82;;;;;;;5.69;83.33;97774.03;5081764;28;20032;-80
2023/11/12 03:18:46;;;;;;;12.80;8.00;;;;;;;5.53;83.42;97764.25;5067036;28;20024;-80
2023/11/12 03:21:11;;;;;;;12.18;8.18;;;;;;;5.50;83.88;97761.31;5080163;28;20065;-80
2023/11/12 03:23:38;;;;;;;12.30;8.38;;;;;;;5.49;84.14;97752.56;5077156;28;20020;-80
2023/11/12 03:26:04;;;;;;;10.60;8.23;;;;;;;5.38;83.99;97758.75;5075181;28;20028;-81
2023/11/12 03:28:30;;;;;;;11.30;8.48;;;;;;;5.61;83.60;97758.59;5074122;28;20032;-80
2023/11/12 03:30:55;;;;;;;10.15;7.45;;;;;;;5.56;83.06;97758.50;5074166;28;20035;-81
2023/11/12 03:33:20;;;;;;;12.27;9.15;;;;;;;5.62;83.27;97756.72;5073328;28;20058;-80
2023/11/12 03:35:47;;;;;;;14.43;8.40;;;;;;;5.56;83.12;97752.41;5042208;28;20032;-80
2023/11/12 03:38:12;;;;;;;12.57;8.60;;;;;;;5.58;83.55;97756.41;5059934;28;20024;-80
2023/11/12 03:40:38;;;;;;;9.50;8.18;;;;;;;5.53;83.98;97758.16;5077457;28;20040;-80
2023/11/12 03:43:04;;;;;;;10.57;8.13;;;;;;;5.59;82.73;97747.41;5077479;28;20040;-80
2023/11/12 03:45:29;;;;;;;13.95;8.30;;;;;;;5.65;83.35;97761.53;5080078;28;20472;-80
2023/11/12 03:47:55;;;;;;;12.05;9.05;;;;;;;5.61;83.42;97742.69;5059685;28;20032;-81
2023/11/12 03:50:20;;;;;;;11.43;8.40;;;;;;;5.67;83.06;97752.31;5057659;28;20043;-80
2023/11/12 03:52:45;;;;;;;11.45;8.70;;;;;;;5.61;83.31;97757.78;5073885;28;20043;-80
2023/11/12 03:55:11;;;;;;;12.52;9.52;;;;;;;5.60;83.20;97756.97;5083751;28;20026;-80
2023/11/12 03:57:36;;;;;;;14.73;8.68;;;;;;;5.63;83.57;97756.50;5066383;28;20035;-80
2023/11/12 04:00:02;;;;;;;11.15;8.13;;;;;;;5.75;83.16;97761.66;5068096;28;20032;-80
2023/11/12 04:02:28;;;;;;;12.07;8.23;;;;;;;5.74;82.72;97763.53;5081761;28;20024;-81
2023/11/12 04:04:53;;;;;;;21.17;10.35;;;;;;;5.68;82.96;97772.41;5087179;28;20020;-80
2023/11/12 04:07:18;;;;;;;15.20;9.23;;;;;;;5.65;83.18;97761.53;5081984;28;20484;-80
2023/11/12 04:09:44;;;;;;;12.80;9.20;;;;;;;5.54;83.46;97765.88;5063019;28;20040;-80
2023/11/12 04:12:11;;;;;;;14.65;9.40;;;;;;;5.72;83.71;97772.75;5083380;28;20148;-80
2023/11/12 04:14:37;;;;;;;10.32;7.82;;;;;;;5.63;83.70;97758.31;5082892;28;20032;-80
2023/11/12 04:17:02;;;;;;;11.98;8.95;;;;;;;5.73;83.11;97764.56;5079975;28;20044;-80
2023/11/12 04:19:27;;;;;;;10.30;8.77;;;;;;;5.70;82.98;97758.97;5086871;28;20069;-80
2023/11/12 04:21:53;;;;;;;9.88;8.88;;;;;;;5.74;83.05;97763.53;5085256;28;20035;-80
2023/11/12 04:24:18;;;;;;;12.43;8.30;;;;;;;5.69;83.49;97767.94;5085813;28;20030;-80
2023/11/12 04:26:44;;;;;;;10.93;8.55;;;;;;;5.62;82.86;97768.09;5069892;28;20036;-80
2023/11/12 04:29:10;;;;;;;10.80;8.98;;;;;;;5.74;83.33;97766.19;5070773;28;20032;-80
2023/11/12 04:31:36;;;;;;;14.85;9.52;;;;;;;5.73;82.56;97772.50;5084415;28;20058;-80
2023/11/12 04:34:02;;;;;;;11.07;8.02;;;;;;;5.67;82.79;97767.38;5069808;28;20040;-80
2023/11/12 04:36:28;;;;;;;13.48;9.23;;;;;;;5.66;82.61;97761.28;5086988;28;20032;-80
2023/11/12 04:38:57;;;;;;;10.80;8.00;;;;;;;5.71;83.24;97771.13;5083806;28;20692;-80
2023/11/12 04:41:23;;;;;;;11.15;7.95;;;;;;;5.65;82.53;97758.88;5100465;28;20138;-80
2023/11/12 04:43:48;;;;;;;14.63;7.47;;;;;;;5.67;82.96;97760.25;5053236;28;20189;-80
2023/11/12 04:46:14;;;;;;;12.85;8.60;;;;;;;5.65;83.35;97757.03;5087153;28;20032;-80
2023/11/12 04:48:39;;;;;;;13.45;7.20;;;;;;;5.61;82.92;97766.53;5085625;28;20039;-80
2023/11/12 04:51:08;;;;;;;8.57;7.43;;;;;;;5.62;83.16;97754.88;5085660;28;20039;-80
2023/11/12 04:53:34;;;;;;;10.27;7.75;;;;;;;5.66;83.44;97765.75;5084334;28;20047;-81
2023/11/12 04:55:59;;;;;;;9.02;7.80;;;;;;;5.62;82.79;97770.75;5068681;28;20035;-80
2023/11/12 04:58:25;;;;;;;14.75;8.43;;;;;;;5.70;83.01;97775.63;5083962;28;20397;-80
2023/11/12 05:00:51;;;;;;;9.05;8.13;;;;;;;5.65;82.58;97769.47;5083809;28;20044;-80
2023/11/12 05:03:17;;;;;;;9.52;8.48;;;;;;;5.57;83.09;97769.88;5084198;28;20024;-80
2023/11/12 05:05:42;;;;;;;11.05;8.05;;;;;;;5.50;83.38;97770.06;5088239;28;20024;-80
2023/11/12 05:08:08;;;;;;;10.10;8.07;;;;;;;5.51;83.01;97765.53;5085713;28;20036;-80
2023/11/12 05:10:34;;;;;;;12.05;8.48;;;;;;;5.57;82.48;97778.59;5069450;28;20069;-80
2023/11/12 05:13:00;;;;;;;9.25;8.25;;;;;;;5.44;82.81;97778.94;5070576;28;20056;-80
2023/11/12 05:15:25;;;;;;;13.43;8.32;;;;;;;5.50;83.01;97774.53;5084637;28;20176;-80
2023/11/12 05:17:50;;;;;;;13.70;10.35;;;;;;;5.53;82.44;97781.97;5085080;28;20121;-80
2023/11/12 05:20:16;;;;;;;10.25;8.75;;;;;;;5.57;82.53;97783.91;5085554;28;20054;-80
2023/11/12 05:22:41;;;;;;;9.75;8.75;;;;;;;5.52;82.43;97783.03;5088662;28;20063;-80
2023/11/12 05:25:10;;;;;;;11.75;9.10;;;;;;;5.52;82.09;97781.19;5086528;28;20039;-80
2023/11/12 05:27:36;;;;;;;14.38;9.98;;;;;;;5.45;82.81;97780.56;5082181;28;20126;-80
2023/11/12 05:30:01;;;;;;;12.90;9.98;;;;;;;5.44;82.67;97770.22;5064609;28;20203;-80
2023/11/12 05:32:27;;;;;;;15.30;8.73;;;;;;;5.56;82.22;97787.59;5067449;28;20047;-80
2023/11/12 05:34:52;;;;;;;13.45;9.60;;;;;;;5.49;82.31;97779.03;5082714;28;20036;-80
2023/11/12 05:37:17;;;;;;;14.05;9.77;;;;;;;5.57;82.02;97783.13;5091815;28;20032;-80
2023/11/12 05:39:43;;;;;;;14.85;10.05;;;;;;;5.55;82.73;97780.69;5080359;28;20036;-80
2023/11/12 05:42:08;;;;;;;12.18;8.35;;;;;;;5.52;82.16;97789.13;5084323;28;20135;-80
2023/11/12 05:44:34;;;;;;;13.65;9.20;;;;;;;5.53;82.50;97790.72;5085158;28;20024;-81
2023/11/12 05:46:59;;;;;;;13.50;9.48;;;;;;;5.38;82.04;97779.91;5078337;28;20039;-80
2023/11/12 05:49:25;;;;;;;12.90;9.40;;;;;;;5.45;82.39;97785.84;5065432;28;20031;-80
2023/11/12 05:51:50;;;;;;;11.95;9.13;;;;;;;5.44;82.74;97794.03;5087178;28;20044;-80
2023/11/12 05:54:16;;;;;;;17.92;10.50;;;;;;;5.30;82.59;97783.78;5084398;28;20050;-80
2023/11/12 05:56:42;;;;;;;10.95;9.77;;;;;;;5.39;82.69;97797.41;5067714;28;20032;-80
2023/11/12 05:59:08;;;;;;;12.00;9.07;;;;;;;5.40;82.58;97799.00;5051542;28;20055;-80
2023/11/12 06:01:33;;;;;;;13.57;10.00;;;;;;;5.36;82.08;97784.66;5066549;28;20028;-80
2023/11/12 06:04:00;;;;;;;11.57;9.15;;;;;;;5.40;81.68;97788.41;5068676;28;20040;-80
2023/11/12 06:06:26;;;;;;;11.48;9.77;;;;;;;5.29;82.30;97784.81;5068256;28;20036;-80
2023/11/12 06:08:51;;;;;;;11.65;9.02;;;;;;;5.19;81.63;97770.63;5100310;28;20059;-80
2023/11/12 06:11:17;;;;;;;11.30;9.27;;;;;;;5.23;81.35;97784.97;5084413;28;20059;-80
2023/11/12 06:13:42;;;;;;;14.73;9.45;;;;;;;5.17;81.52;97796.50;5083570;28;20027;-80
2023/11/12 06:16:07;;;;;;;12.45;9.43;;;;;;;5.08;82.02;97803.22;5083756;28;20498;-80
2023/11/12 06:18:33;;;;;;;16.42;9.85;;;;;;;5.20;82.16;97799.47;5062095;28;20051;-80
2023/11/12 06:20:59;;;;;;;21.85;9.55;;;;;;;5.17;82.04;97794.69;5089383;28;20033;-80
2023/11/12 06:23:25;;;;;;;15.05;8.90;;;;;;;5.19;82.23;97802.34;5083302;28;20154;-80
2023/11/12 06:25:51;;;;;;;11.63;9.38;;;;;;;5.12;81.29;97807.00;5086863;28;20089;-80
2023/11/12 06:28:16;;;;;;;15.85;10.40;;;;;;;5.10;82.02;97796.66;5081812;28;20036;-80
2023/11/12 06:30:42;;;;;;;11.82;9.55;;;;;;;5.05;81.34;97793.94;5082893;28;20032;-80
2023/11/12 06:33:07;;;;;;;14.90;10.48;;;;;;;5.06;81.73;97806.13;5083461;28;20383;-80
2023/11/12 06:35:33;;;;;;;13.80;10.30;;;;;;;4.92;81.53;97798.72;5081115;28;20073;-80
2023/11/12 06:37:58;;;;;;;15.35;10.25;;;;;;;5.10;81.61;97812.53;5063685;28;20127;-80
2023/11/12 06:40:23;;;;;;;12.73;9.75;;;;;;;5.11;81.30;97802.75;5077434;28;20400;-80
2023/11/12 06:42:49;;;;;;;13.90;9.55;;;;;;;4.84;82.06;97802.56;5060195;28;20032;-80
2023/11/12 06:45:14;;;;;;;14.10;9.57;;;;;;;5.01;81.53;97810.50;5072062;28;20028;-80
2023/11/12 06:47:40;;;;;;;15.38;10.20;;;;;;;5.01;82.54;97815.78;5083960;28;20059;-80
2023/11/12 06:50:07;;;;;;;13.90;11.18;;;;;;;4.90;82.41;97817.47;5089686;28;20031;-80
2023/11/12 06:52:32;;;;;;;16.08;10.75;;;;;;;5.03;82.03;97827.75;5074254;28;20032;-79
2023/11/12 06:54:59;;;;;;;12.93;11.02;;;;;;;4.86;81.63;97802.31;5087243;28;20036;-80
2023/11/12 06:57:25;;;;;;;14.18;10.73;;;;;;;4.97;81.84;97833.19;5083789;28;20070;-80
2023/11/12 06:59:50;;;;;;;13.38;10.70;;;;;;;4.87;82.50;97812.63;5071652;28;20036;-80
2023/11/12 07:02:16;;;;;;;15.88;11.07;;;;;;;4.88;82.04;97808.16;5081817;28;20032;-80
2023/11/12 07:04:41;;;;;;;16.25;11.70;;;;;;;4.87;81.90;97820.56;5074909;28;20031;-80
2023/11/12 07:07:06;;;;;;;15.98;11.13;;;;;;;4.87;83.15;97823.22;5059550;28;20115;-80
2023/11/12 07:09:33;;;;;;;20.05;12.25;;;;;;;4.93;82.90;97829.41;5083673;28;20029;-80
2023/11/12 07:11:59;;;;;;;16.15;12.02;;;;;;;4.92;82.88;97822.50;5063642;28;20495;-80
2023/11/12 07:14:24;;;;;;;17.98;11.43;;;;;;;4.87;83.04;97838.28;5075191;28;20024;-80
2023/11/12 07:16:50;;;;;;;16.58;11.52;;;;;;;5.04;82.32;97837.28;5070111;28;20028;-80
2023/11/12 07:19:15;;;;;;;14.00;11.20;;;;;;;5.02;82.70;97825.34;5074748;28;20032;-80
2023/11/12 07:21:40;;;;;;;14.07;11.27;;;;;;;5.06;83.29;97835.22;5084739;28;20036;-80
2023/11/12 07:24:06;;;;;;;14.38;10.90;;;;;;;5.20;82.98;97840.97;5082746;28;20039;-80
2023/11/12 07:26:31;;;;;;;16.63;10.65;;;;;;;5.13;82.69;97829.78;5079962;28;20577;-80
2023/11/12 07:28:57;;;;;;;17.52;10.75;;;;;;;5.23;82.31;97835.22;5083259;28;20068;-80
2023/11/12 07:31:23;;;;;;;13.93;11.32;;;;;;;5.11;83.15;97824.69;5078522;28;20042;-80
2023/11/12 07:33:49;;;;;;;14.82;11.27;;;;;;;5.24;83.85;97842.91;5076149;28;20036;-80
2023/11/12 07:36:15;;;;;;;17.40;10.95;;;;;;;5.29;82.89;97840.38;5083130;28;20506;-80
2023/11/12 07:38:41;;;;;;;18.15;12.27;;;;;;;5.32;82.95;97842.53;5087485;28;20044;-81
2023/11/12 07:41:10;;;;;;;16.20;11.70;;;;;;;5.26;83.50;97835.53;5085698;28;20016;-80
2023/11/12 07:43:36;;;;;;;14.70;11.10;;;;;;;5.36;83.39;97842.03;5084434;28;20030;-81
2023/11/12 07:46:05;;;;;;;16.63;11.10;;;;;;;5.32;84.06;97852.31;5066193;28;20030;-80
2023/11/12 07:48:31;;;;;;;13.50;10.30;;;;;;;5.46;82.77;97842.22;5068010;28;20029;-81
2023/11/12 07:50:57;;;;;;;18.73;10.07;;;;;;;5.44;83.13;97847.75;5072292;28;20029;-80
2023/11/12 07:53:23;;;;;;;13.73;9.68;;;;;;;5.53;82.94;97854.25;5084586;28;20036;-80
2023/11/12 07:55:49;;;;;;;12.68;9.95;;;;;;;5.61;83.33;97845.13;5086913;28;20040;-81
2023/11/12 07:58:14;;;;;;;14.00;11.10;;;;;;;5.51;83.02;97835.16;5095184;28;20073;-81
2023/11/12 08:00:39;;;;;;;16.65;10.32;;;;;;;5.53;84.52;97848.94;5068930;28;20034;-80
2023/11/12 08:03:05;;;;;;;14.05;10.00;;;;;;;5.61;83.70;97845.91;5084005;28;20032;-80
2023/11/12 08:05:31;;;;;;;14.20;9.65;;;;;;;5.64;83.36;97845.41;5071219;28;20115;-80
2023/11/12 08:07:56;;;;;;;14.98;10.68;;;;;;;5.58;83.38;97853.53;5087102;28;20040;-80
2023/11/12 08:10:22;;;;;;;14.38;10.20;;;;;;;5.62;83.18;97865.22;5072224;28;20127;-81
2023/11/12 08:12:47;;;;;;;17.65;9.57;;;;;;;5.74;82.70;97861.47;5070347;28;20064;-80
2023/11/12 08:15:13;;;;;;;11.00;8.05;;;;;;;5.71;82.80;97861.94;5070515;28;20377;-80
2023/11/12 08:17:39;;;;;;;12.15;9.65;;;;;;;5.74;83.34;97864.13;5085717;28;20032;-80
2023/11/12 08:20:05;;;;;;;11.15;8.95;;;;;;;5.71;82.84;97869.09;5083007;28;20047;-82
2023/11/12 08:22:31;;;;;;;15.65;10.13;;;;;;;5.69;83.39;97858.75;5088452;28;20028;-80
2023/11/12 08:24:57;;;;;;;12.85;9.60;;;;;;;5.69;82.37;97860.59;5072682;28;20028;-80
2023/11/12 08:27:22;;;;;;;12.50;9.73;;;;;;;5.78;82.78;97872.38;5088850;28;20025;-81
2023/11/12 08:29:48;;;;;;;12.77;9.77;;;;;;;5.82;82.31;97876.16;5079468;28;20119;-80
2023/11/12 08:32:14;;;;;;;14.82;10.77;;;;;;;5.88;83.42;97878.66;5085904;28;20085;-80
2023/11/12 08:34:39;;;;;;;13.35;9.45;;;;;;;5.68;83.29;97864.28;5078314;28;20036;-80
2023/11/12 08:37:04;;;;;;;15.15;9.55;;;;;;;5.80;83.11;97859.69;5044527;28;20039;-79
2023/11/12 08:39:30;;;;;;;13.85;10.15;;;;;;;5.78;82.96;97862.59;5083775;28;20024;-80
2023/11/12 08:41:55;;;;;;;16.17;10.30;;;;;;;5.86;82.96;97859.56;5060249;28;20040;-80
2023/11/12 08:44:21;;;;;;;14.45;10.45;;;;;;;5.94;82.26;97868.97;5087613;28;20716;-80
2023/11/12 08:46:46;;;;;;;15.23;10.35;;;;;;;5.94;83.28;97877.69;5071319;28;20044;-80
2023/11/12 08:49:12;;;;;;;13.13;9.20;;;;;;;5.97;82.92;97877.22;5087149;28;20036;-80
2023/11/12 08:51:38;;;;;;;14.45;10.38;;;;;;;5.99;82.44;97887.56;5072085;28;20085;-80
2023/11/12 08:54:03;;;;;;;29.02;18.13;;;;;;;6.03;82.34;97870.13;5054875;28;20043;-80
2023/11/12 08:56:29;;;;;;;25.88;15.65;;;;;;;6.07;82.16;97877.34;5081666;28;20471;-80
2023/11/12 08:58:58;;;;;;;24.02;14.50;;;;;;;6.13;82.09;97872.13;5080824;28;20142;-80
2023/11/12 09:01:24;;;;;;;18.48;15.77;;;;;;;6.17;82.97;97884.66;5085199;28;20384;-80
2023/11/12 09:03:50;;;;;;;21.55;15.68;;;;;;;6.26;82.42;97887.69;5080118;28;20035;-80
2023/11/12 09:06:16;;;;;;;18.05;14.65;;;;;;;6.17;82.27;97894.44;5083914;28;20028;-80
2023/11/12 09:08:41;;;;;;;17.80;13.15;;;;;;;6.17;81.55;97899.72;5080796;28;20090;-80
2023/11/12 09:11:06;;;;;;;11.45;10.23;;;;;;;6.22;81.71;97903.28;5085493;28;20030;-80
2023/11/12 09:13:32;;;;;;;13.93;9.82;;;;;;;6.17;82.35;97897.91;5072964;28;20063;-80
2023/11/12 09:15:58;;;;;;;13.98;9.38;;;;;;;6.21;81.85;97890.25;5072445;28;20685;-80
2023/11/12 09:18:24;;;;;;;12.68;9.20;;;;;;;6.15;82.13;97901.81;5070141;28;20034;-80
2023/11/12 09:20:52;;;;;;;15.27;9.02;;;;;;;6.14;82.24;97898.38;5071683;28;20036;-80
2023/11/12 09:23:17;;;;;;;13.02;8.57;;;;;;;6.21;81.74;97912.25;5086793;28;20066;-80
2023/11/12 09:25:44;;;;;;;10.45;8.43;;;;;;;6.17;81.53;97902.38;5093132;28;20028;-80
2023/11/12 09:28:09;;;;;;;12.32;9.00;;;;;;;6.22;80.97;97903.28;5069611;28;20036;-80
2023/11/12 09:30:36;;;;;;;11.40;9.13;;;;;;;6.30;81.18;97910.78;5079099;28;20491;-80
2023/11/12 09:33:04;;;;;;;12.55;7.68;;;;;;;6.32;80.86;97921.16;5090277;28;20366;-80
2023/11/12 09:35:30;;;;;;;12.13;8.43;;;;;;;6.34;80.64;97913.75;5084635;28;20415;-80
2023/11/12 09:37:55;;;;;;;13.48;9.05;;;;;;;6.31;80.73;97906.31;5093989;28;20085;-80
2023/11/12 09:40:22;;;;;;;11.68;8.45;;;;;;;6.38;81.16;97925.47;5089730;28;20051;-80
2023/11/12 09:42:52;;;;;;;13.00;8.90;;;;;;;6.39;80.53;97922.59;5070901;28;20460;-80
2023/11/12 09:45:19;;;;;;;11.65;8.35;;;;;;;6.45;80.25;97926.09;5088696;28;20024;-80
2023/11/12 09:47:54;;;;;;;11.43;8.57;;;;;;;6.36;80.82;97924.91;5086870;28;20035;-81
2023/11/12 09:50:24;;;;;;;11.13;9.10;;;;;;;6.34;80.91;97924.34;5088332;28;20020;-80
2023/11/12 09:52:52;;;;;;;11.35;9.50;;;;;;;6.41;80.49;97930.28;5071850;28;20058;-80
2023/11/12 09:55:20;;;;;;;10.95;8.57;;;;;;;6.52;80.47;97926.72;5070849;28;20626;-80
2023/11/12 09:57:46;;;;;;;11.25;8.50;;;;;;;6.38;80.42;97928.09;5069625;28;20028;-80
2023/11/12 10:00:13;;;;;;;12.57;10.20;;;;;;;6.30;81.08;97921.41;5084824;28;20035;-80
2023/11/12 10:02:42;;;;;;;16.98;11.77;;;;;;;6.37;80.47;97939.78;5090797;28;20391;-80
2023/11/12 10:05:11;;;;;;;13.68;10.57;;;;;;;6.43;80.98;97933.50;5084302;28;20026;-80
2023/11/12 10:07:40;;;;;;;11.48;9.20;;;;;;;6.43;81.08;97933.50;5090414;28;20024;-80
2023/11/12 10:10:30;;;;;;;9.85;8.70;;;;;;;6.40;79.60;97928.69;5085433;28;20069;-80
2023/11/12 10:12:56;;;;;;;9.88;8.48;;;;;;;6.39;80.11;97929.72;5071990;28;20123;-80
2023/11/12 10:15:24;;;;;;;16.00;7.97;;;;;;;6.52;79.66;97938.13;5083245;28;20048;-80
2023/11/12 10:17:51;;;;;;;8.43;7.10;;;;;;;6.54;79.40;97935.25;5083782;28;20820;-80
2023/11/12 10:20:21;;;;;;;9.18;7.28;;;;;;;6.63;80.00;97939.88;5083342;28;20032;-80
2023/11/12 10:22:47;;;;;;;9.88;8.00;;;;;;;6.64;80.19;97940.69;5083565;28;20040;-80
2023/11/12 10:25:14;;;;;;;10.82;8.02;;;;;;;6.53;79.74;97929.13;5081258;28;20360;-80
2023/11/12 10:27:56;;;;;;;15.93;8.00;;;;;;;6.56;80.35;97931.31;5071340;28;20048;-80
2023/11/12 10:30:23;;;;;;;11.48;7.28;;;;;;;6.57;79.83;97935.56;5088503;28;20051;-80
2023/11/12 10:32:48;;;;;;;14.30;9.02;;;;;;;6.56;80.95;97935.78;5092897;28;20038;-80
2023/11/12 10:35:34;;;;;;;13.65;8.65;;;;;;;6.61;81.19;97941.97;5090812;28;20024;-80
2023/11/12 10:38:02;;;;;;;9.87;7.07;;;;;;;6.63;80.17;97945.19;5076814;28;20040;-80
2023/11/12 10:40:31;;;;;;;15.45;9.65;;;;;;;6.52;80.06;97940.78;5083690;28;20039;-80
2023/11/12 10:43:10;;;;;;;11.63;9.38;;;;;;;6.52;80.76;97940.78;5074214;28;20147;-80
2023/11/12 10:45:38;;;;;;;12.57;9.25;;;;;;;6.55;80.12;97924.38;5074481;28;20029;-80
2023/11/12 10:48:04;;;;;;;15.15;8.98;;;;;;;6.65;79.89;97943.09;5086669;28;20019;-80
2023/11/12 10:50:30;;;;;;;12.75;9.35;;;;;;;6.66;79.91;97944.69;5074465;28;20036;-80
2023/11/12 10:52:56;;;;;;;10.30;8.45;;;;;;;6.67;79.16;97934.88;5069770;28;20043;-79
2023/11/12 10:55:22;;;;;;;14.23;9.18;;;;;;;6.70;79.36;97934.41;5071806;28;20376;-80
2023/11/12 10:57:49;;;;;;;11.70;7.97;;;;;;;6.74;79.30;97922.25;5078384;28;20036;-80
2023/11/12 11:00:16;;;;;;;14.05;8.75;;;;;;;6.77;79.30;97924.41;5091099;28;20368;-80
2023/11/12 11:02:44;;;;;;;12.65;8.52;;;;;;;6.76;79.00;97925.47;5062223;28;20026;-80
2023/11/12 11:05:12;;;;;;;10.80;8.20;;;;;;;6.80;79.41;97918.59;5085644;28;20055;-80
2023/11/12 11:07:38;;;;;;;10.57;7.57;;;;;;;6.88;79.23;97925.34;5061165;28;20077;-80
2023/11/12 11:10:05;;;;;;;10.98;8.10;;;;;;;6.87;78.74;97911.28;5066421;28;20391;-79
2023/11/12 11:12:31;;;;;;;11.63;6.88;;;;;;;7.14;79.30;97920.06;5090154;28;20020;-80
2023/11/12 11:15:35;;;;;;;11.20;7.68;;;;;;;7.23;79.52;97920.44;5084592;28;20507;-80
2023/11/12 11:18:03;;;;;;;10.40;7.45;;;;;;;7.23;78.10;97902.66;5081894;28;20077;-80
2023/11/12 11:21:04;;;;;;;10.95;6.80;;;;;;;7.31;77.93;97912.84;5086404;28;20427;-80
2023/11/12 11:23:44;;;;;;;10.68;7.60;;;;;;;7.31;77.63;97917.34;5084668;28;20030;-80
2023/11/12 11:26:27;;;;;;;8.63;6.38;;;;;;;7.32;77.72;97913.63;5081010;28;20077;-80
2023/11/12 11:29:05;;;;;;;13.57;6.40;;;;;;;7.36;77.02;97909.44;5102039;28;20697;-80
2023/11/12 11:31:42;;;;;;;7.93;6.28;;;;;;;7.47;77.89;97903.13;5090612;28;20020;-80